Terminal Aerodrome Forecast
Issued by NWS

Home | Current Version | Previous Version | Text Only | Print | Product List | Glossary On
Versions: 1 2 3 4 5 6 7 8 9 10 11 12 13 14 15
000
FTUS43 KDTX 302335
TAFYIP
TAF
KYIP 302335Z 3100/3124 23005KT P6SM -SHRA OVC045
     FM311000 23005KT 4SM -SHRA BR OVC025
     FM311600 26008KT 4SM BR OVC015
     FM311900 30015KT 2SM SHRA BR OVC008
     FM312100 33020G30KT 4SM SHRA OVC008=

USA.gov is the U.S. government's official web portal to all federal, state and local government web resources and services.